sensor_id;sensor_type;location;lat;lon;timestamp;pressure;altitude;pressure_sealevel;temperature;humidity
54900;BME280;40801;41.924;25.562;2023-02-18T00:01:15;100309.38;;;4.38;60.17
54900;BME280;40801;41.924;25.562;2023-02-18T00:03:41;100296.97;;;4.15;60.57
54900;BME280;40801;41.924;25.562;2023-02-18T00:06:27;100302.00;;;4.28;62.46
54900;BME280;40801;41.924;25.562;2023-02-18T00:08:53;100300.19;;;4.17;60.64
54900;BME280;40801;41.924;25.562;2023-02-18T00:11:20;100302.31;;;4.31;59.82
54900;BME280;40801;41.924;25.562;2023-02-18T00:13:58;100304.41;;;4.29;61.09
54900;BME280;40801;41.924;25.562;2023-02-18T00:16:25;100301.50;;;4.14;60.86
54900;BME280;40801;41.924;25.562;2023-02-18T00:18:58;100299.38;;;4.16;61.63
54900;BME280;40801;41.924;25.562;2023-02-18T00:21:25;100306.81;;;4.14;61.24
54900;BME280;40801;41.924;25.562;2023-02-18T00:23:50;100306.50;;;4.11;61.09
54900;BME280;40801;41.924;25.562;2023-02-18T00:26:17;100298.09;;;4.19;60.70
54900;BME280;40801;41.924;25.562;2023-02-18T00:28:43;100300.84;;;4.24;60.13
54900;BME280;40801;41.924;25.562;2023-02-18T00:31:17;100308.94;;;4.12;61.76
54900;BME280;40801;41.924;25.562;2023-02-18T00:33:42;100303.88;;;3.99;61.24
54900;BME280;40801;41.924;25.562;2023-02-18T00:36:10;100287.53;;;3.95;61.65
54900;BME280;40801;41.924;25.562;2023-02-18T00:38:36;100286.88;;;3.88;61.83
54900;BME280;40801;41.924;25.562;2023-02-18T00:41:02;100282.16;;;3.79;62.76
54900;BME280;40801;41.924;25.562;2023-02-18T00:43:28;100272.28;;;3.79;62.07
54900;BME280;40801;41.924;25.562;2023-02-18T00:45:53;100275.53;;;3.81;62.34
54900;BME280;40801;41.924;25.562;2023-02-18T00:48:18;100270.22;;;3.69;62.72
54900;BME280;40801;41.924;25.562;2023-02-18T00:50:44;100273.91;;;3.80;61.89
54900;BME280;40801;41.924;25.562;2023-02-18T00:53:10;100261.06;;;3.77;61.87
54900;BME280;40801;41.924;25.562;2023-02-18T00:55:39;100255.47;;;3.79;62.43
54900;BME280;40801;41.924;25.562;2023-02-18T00:58:05;100256.31;;;3.67;62.84
54900;BME280;40801;41.924;25.562;2023-02-18T01:00:30;100241.19;;;3.56;63.64
54900;BME280;40801;41.924;25.562;2023-02-18T01:02:56;100245.06;;;3.65;62.67
54900;BME280;40801;41.924;25.562;2023-02-18T01:05:21;100242.16;;;3.67;62.36
54900;BME280;40801;41.924;25.562;2023-02-18T01:07:47;100223.72;;;3.49;62.95
54900;BME280;40801;41.924;25.562;2023-02-18T01:10:12;100228.41;;;3.58;62.40
54900;BME280;40801;41.924;25.562;2023-02-18T01:12:38;100224.94;;;3.58;62.96
54900;BME280;40801;41.924;25.562;2023-02-18T01:15:05;100221.06;;;3.65;62.45
54900;BME280;40801;41.924;25.562;2023-02-18T01:17:31;100212.50;;;3.63;62.60
54900;BME280;40801;41.924;25.562;2023-02-18T01:19:57;100198.94;;;3.65;62.02
54900;BME280;40801;41.924;25.562;2023-02-18T01:22:24;100202.72;;;3.69;61.98
54900;BME280;40801;41.924;25.562;2023-02-18T01:24:50;100202.41;;;3.65;62.25
54900;BME280;40801;41.924;25.562;2023-02-18T01:27:15;100189.78;;;3.61;62.78
54900;BME280;40801;41.924;25.562;2023-02-18T01:29:40;100195.94;;;3.61;62.62
54900;BME280;40801;41.924;25.562;2023-02-18T01:32:06;100176.84;;;3.53;62.71
54900;BME280;40801;41.924;25.562;2023-02-18T01:34:32;100185.84;;;3.63;62.28
54900;BME280;40801;41.924;25.562;2023-02-18T01:36:58;100178.78;;;3.57;62.70
54900;BME280;40801;41.924;25.562;2023-02-18T01:39:23;100173.31;;;3.64;62.41
54900;BME280;40801;41.924;25.562;2023-02-18T01:41:49;100171.44;;;3.64;62.45
54900;BME280;40801;41.924;25.562;2023-02-18T01:44:18;100173.06;;;3.65;62.65
54900;BME280;40801;41.924;25.562;2023-02-18T01:46:44;100169.19;;;3.56;62.79
54900;BME280;40801;41.924;25.562;2023-02-18T01:49:13;100162.31;;;3.60;62.33
54900;BME280;40801;41.924;25.562;2023-02-18T01:51:45;100167.50;;;3.38;65.50
54900;BME280;40801;41.924;25.562;2023-02-18T01:54:19;100155.75;;;3.51;62.32
54900;BME280;40801;41.924;25.562;2023-02-18T01:59:41;100165.13;;;3.54;64.29
54900;BME280;40801;41.924;25.562;2023-02-18T02:02:13;100163.59;;;3.58;62.85
54900;BME280;40801;41.924;25.562;2023-02-18T02:04:39;100168.59;;;3.54;62.16
54900;BME280;40801;41.924;25.562;2023-02-18T02:07:04;100166.75;;;3.55;62.59
54900;BME280;40801;41.924;25.562;2023-02-18T02:09:31;100170.56;;;3.59;62.30
54900;BME280;40801;41.924;25.562;2023-02-18T02:23:27;100165.72;;;3.44;64.63
54900;BME280;40801;41.924;25.562;2023-02-18T02:37:11;100162.75;;;3.40;63.36
54900;BME280;40801;41.924;25.562;2023-02-18T02:44:37;100168.88;;;3.41;63.14
54900;BME280;40801;41.924;25.562;2023-02-18T02:47:26;100165.16;;;3.42;63.20
54900;BME280;40801;41.924;25.562;2023-02-18T02:50:36;100172.69;;;3.45;62.49
54900;BME280;40801;41.924;25.562;2023-02-18T02:52:51;100168.63;;;3.42;63.13
54900;BME280;40801;41.924;25.562;2023-02-18T02:55:21;100170.97;;;3.39;62.33
54900;BME280;40801;41.924;25.562;2023-02-18T02:57:49;100180.25;;;3.36;62.90
54900;BME280;40801;41.924;25.562;2023-02-18T03:00:19;100178.88;;;3.34;63.17
54900;BME280;40801;41.924;25.562;2023-02-18T03:08:40;100175.06;;;3.30;62.83
54900;BME280;40801;41.924;25.562;2023-02-18T03:11:12;100185.50;;;3.31;63.12
54900;BME280;40801;41.924;25.562;2023-02-18T03:13:49;100180.75;;;3.33;62.71
54900;BME280;40801;41.924;25.562;2023-02-18T03:19:04;100180.50;;;3.35;62.79
54900;BME280;40801;41.924;25.562;2023-02-18T03:21:40;100173.56;;;3.34;63.06
54900;BME280;40801;41.924;25.562;2023-02-18T03:26:40;100175.06;;;3.30;62.61
54900;BME280;40801;41.924;25.562;2023-02-18T03:29:08;100162.47;;;3.25;62.65
54900;BME280;40801;41.924;25.562;2023-02-18T03:31:36;100155.50;;;3.24;63.08
54900;BME280;40801;41.924;25.562;2023-02-18T03:34:11;100162.78;;;3.29;63.01
54900;BME280;40801;41.924;25.562;2023-02-18T03:36:38;100159.16;;;3.35;61.99
54900;BME280;40801;41.924;25.562;2023-02-18T03:39:10;100144.47;;;3.32;62.55
54900;BME280;40801;41.924;25.562;2023-02-18T03:41:38;100152.06;;;3.40;62.22
54900;BME280;40801;41.924;25.562;2023-02-18T03:44:06;100160.06;;;3.40;62.40
54900;BME280;40801;41.924;25.562;2023-02-18T03:46:33;100156.34;;;3.41;62.60
54900;BME280;40801;41.924;25.562;2023-02-18T03:48:59;100149.16;;;3.42;62.08
54900;BME280;40801;41.924;25.562;2023-02-18T03:51:25;100149.72;;;3.44;62.51
54900;BME280;40801;41.924;25.562;2023-02-18T03:53:51;100155.44;;;3.48;62.25
54900;BME280;40801;41.924;25.562;2023-02-18T03:56:17;100154.38;;;3.49;62.08
54900;BME280;40801;41.924;25.562;2023-02-18T03:58:43;100158.41;;;3.51;62.08
54900;BME280;40801;41.924;25.562;2023-02-18T04:01:08;100160.84;;;3.53;61.61
54900;BME280;40801;41.924;25.562;2023-02-18T04:03:33;100167.00;;;3.53;62.40
54900;BME280;40801;41.924;25.562;2023-02-18T04:05:59;100170.94;;;3.51;62.33
54900;BME280;40801;41.924;25.562;2023-02-18T04:08:24;100175.81;;;3.54;61.95
54900;BME280;40801;41.924;25.562;2023-02-18T04:10:50;100167.31;;;3.57;61.58
54900;BME280;40801;41.924;25.562;2023-02-18T04:13:15;100168.94;;;3.58;62.14
54900;BME280;40801;41.924;25.562;2023-02-18T04:15:43;100175.22;;;3.52;62.34
54900;BME280;40801;41.924;25.562;2023-02-18T04:18:08;100174.91;;;3.48;62.35
54900;BME280;40801;41.924;25.562;2023-02-18T04:20:33;100180.56;;;3.52;62.47
54900;BME280;40801;41.924;25.562;2023-02-18T04:22:59;100188.91;;;3.43;62.93
54900;BME280;40801;41.924;25.562;2023-02-18T04:25:24;100189.84;;;3.49;62.23
54900;BME280;40801;41.924;25.562;2023-02-18T04:27:50;100188.22;;;3.48;61.86
54900;BME280;40801;41.924;25.562;2023-02-18T04:30:15;100200.03;;;3.52;62.31
54900;BME280;40801;41.924;25.562;2023-02-18T04:32:40;100199.59;;;3.43;62.75
54900;BME280;40801;41.924;25.562;2023-02-18T04:35:06;100206.69;;;3.38;62.88
54900;BME280;40801;41.924;25.562;2023-02-18T04:37:31;100204.91;;;3.43;63.02
54900;BME280;40801;41.924;25.562;2023-02-18T04:39:57;100197.50;;;3.46;62.30
54900;BME280;40801;41.924;25.562;2023-02-18T04:42:22;100204.44;;;3.47;62.16
54900;BME280;40801;41.924;25.562;2023-02-18T04:44:48;100195.31;;;3.42;62.03
54900;BME280;40801;41.924;25.562;2023-02-18T04:47:13;100193.44;;;3.43;62.07
54900;BME280;40801;41.924;25.562;2023-02-18T04:49:39;100200.97;;;3.46;62.06
54900;BME280;40801;41.924;25.562;2023-02-18T04:52:04;100198.50;;;3.28;63.61
54900;BME280;40801;41.924;25.562;2023-02-18T04:54:29;100201.50;;;3.31;62.93
54900;BME280;40801;41.924;25.562;2023-02-18T04:56:55;100195.44;;;3.36;62.62
54900;BME280;40801;41.924;25.562;2023-02-18T04:59:20;100205.50;;;3.46;62.08
54900;BME280;40801;41.924;25.562;2023-02-18T05:01:46;100207.09;;;3.47;62.60
54900;BME280;40801;41.924;25.562;2023-02-18T05:04:11;100201.44;;;3.43;62.68
54900;BME280;40801;41.924;25.562;2023-02-18T05:06:37;100208.41;;;3.44;62.13
54900;BME280;40801;41.924;25.562;2023-02-18T05:09:04;100209.59;;;3.36;62.30
54900;BME280;40801;41.924;25.562;2023-02-18T05:11:30;100211.44;;;3.36;62.44
54900;BME280;40801;41.924;25.562;2023-02-18T05:13:55;100205.41;;;3.40;62.74
54900;BME280;40801;41.924;25.562;2023-02-18T05:16:20;100202.50;;;3.42;62.25
54900;BME280;40801;41.924;25.562;2023-02-18T05:18:46;100198.91;;;3.48;62.34
54900;BME280;40801;41.924;25.562;2023-02-18T05:21:11;100199.16;;;3.35;62.54
54900;BME280;40801;41.924;25.562;2023-02-18T05:23:36;100203.44;;;3.36;62.71
54900;BME280;40801;41.924;25.562;2023-02-18T05:26:02;100202.00;;;3.45;61.91
54900;BME280;40801;41.924;25.562;2023-02-18T05:28:28;100196.22;;;3.48;62.36
54900;BME280;40801;41.924;25.562;2023-02-18T05:30:53;100205.50;;;3.46;63.02
54900;BME280;40801;41.924;25.562;2023-02-18T05:33:19;100210.00;;;3.57;62.50
54900;BME280;40801;41.924;25.562;2023-02-18T05:35:44;100201.25;;;3.61;61.49
54900;BME280;40801;41.924;25.562;2023-02-18T05:38:09;100202.16;;;3.67;62.48
54900;BME280;40801;41.924;25.562;2023-02-18T05:40:36;100196.69;;;3.73;62.01
54900;BME280;40801;41.924;25.562;2023-02-18T05:43:01;100198.66;;;3.78;61.94
54900;BME280;40801;41.924;25.562;2023-02-18T05:45:26;100187.75;;;3.80;61.73
54900;BME280;40801;41.924;25.562;2023-02-18T05:47:52;100191.69;;;3.94;61.71
54900;BME280;40801;41.924;25.562;2023-02-18T05:50:17;100203.59;;;4.03;61.41
54900;BME280;40801;41.924;25.562;2023-02-18T05:52:43;100209.44;;;4.17;61.58
54900;BME280;40801;41.924;25.562;2023-02-18T05:55:08;100210.16;;;4.29;61.63
54900;BME280;40801;41.924;25.562;2023-02-18T05:57:33;100213.81;;;4.40;62.02
54900;BME280;40801;41.924;25.562;2023-02-18T05:59:59;100212.91;;;4.51;61.90
54900;BME280;40801;41.924;25.562;2023-02-18T06:02:24;100211.53;;;4.65;61.72
54900;BME280;40801;41.924;25.562;2023-02-18T06:04:49;100205.34;;;4.81;60.90
54900;BME280;40801;41.924;25.562;2023-02-18T06:07:15;100210.00;;;4.91;60.85
54900;BME280;40801;41.924;25.562;2023-02-18T06:09:40;100204.56;;;5.03;61.23
54900;BME280;40801;41.924;25.562;2023-02-18T06:12:06;100206.78;;;5.11;60.76
54900;BME280;40801;41.924;25.562;2023-02-18T06:14:31;100207.00;;;5.26;60.35
54900;BME280;40801;41.924;25.562;2023-02-18T06:16:57;100211.66;;;5.36;60.37
54900;BME280;40801;41.924;25.562;2023-02-18T06:19:22;100205.91;;;5.49;60.30
54900;BME280;40801;41.924;25.562;2023-02-18T06:21:48;100211.97;;;5.66;59.61
54900;BME280;40801;41.924;25.562;2023-02-18T06:24:13;100201.22;;;5.61;60.02
54900;BME280;40801;41.924;25.562;2023-02-18T06:26:39;100207.84;;;5.80;59.85
54900;BME280;40801;41.924;25.562;2023-02-18T06:29:04;100209.94;;;6.00;59.18
54900;BME280;40801;41.924;25.562;2023-02-18T06:31:29;100211.44;;;6.18;59.23
54900;BME280;40801;41.924;25.562;2023-02-18T06:33:55;100204.63;;;6.37;58.75
54900;BME280;40801;41.924;25.562;2023-02-18T06:36:20;100199.63;;;6.51;59.02
54900;BME280;40801;41.924;25.562;2023-02-18T06:38:46;100193.78;;;6.59;58.90
54900;BME280;40801;41.924;25.562;2023-02-18T06:41:12;100195.56;;;6.86;58.29
54900;BME280;40801;41.924;25.562;2023-02-18T06:43:38;100187.63;;;7.11;57.29
54900;BME280;40801;41.924;25.562;2023-02-18T06:46:04;100181.81;;;7.34;56.71
54900;BME280;40801;41.924;25.562;2023-02-18T06:48:30;100175.44;;;7.56;56.36
54900;BME280;40801;41.924;25.562;2023-02-18T06:50:55;100178.97;;;7.76;56.43
54900;BME280;40801;41.924;25.562;2023-02-18T06:53:20;100192.44;;;8.12;56.30
54900;BME280;40801;41.924;25.562;2023-02-18T06:55:46;100193.53;;;8.52;55.66
54900;BME280;40801;41.924;25.562;2023-02-18T06:58:12;100192.91;;;8.85;54.80
54900;BME280;40801;41.924;25.562;2023-02-18T07:00:38;100188.84;;;8.98;54.02
54900;BME280;40801;41.924;25.562;2023-02-18T07:03:04;100185.25;;;9.18;53.67
54900;BME280;40801;41.924;25.562;2023-02-18T07:05:30;100172.28;;;9.35;53.87
54900;BME280;40801;41.924;25.562;2023-02-18T07:07:56;100170.91;;;9.82;53.37
54900;BME280;40801;41.924;25.562;2023-02-18T07:10:21;100160.03;;;10.31;53.06
54900;BME280;40801;41.924;25.562;2023-02-18T07:12:47;100162.06;;;10.73;52.05
54900;BME280;40801;41.924;25.562;2023-02-18T07:15:13;100164.34;;;11.09;51.71
54900;BME280;40801;41.924;25.562;2023-02-18T07:17:38;100155.19;;;11.47;50.43
54900;BME280;40801;41.924;25.562;2023-02-18T07:20:04;100149.81;;;11.85;50.07
54900;BME280;40801;41.924;25.562;2023-02-18T07:22:30;100141.56;;;12.41;49.21
54900;BME280;40801;41.924;25.562;2023-02-18T07:24:55;100142.63;;;12.87;48.10
54900;BME280;40801;41.924;25.562;2023-02-18T07:27:21;100128.88;;;13.24;47.80
54900;BME280;40801;41.924;25.562;2023-02-18T07:29:47;100129.28;;;13.31;46.79
54900;BME280;40801;41.924;25.562;2023-02-18T07:32:15;100124.06;;;13.21;46.93
54900;BME280;40801;41.924;25.562;2023-02-18T07:34:40;100128.53;;;13.40;46.46
54900;BME280;40801;41.924;25.562;2023-02-18T07:37:06;100119.13;;;13.23;46.27
54900;BME280;40801;41.924;25.562;2023-02-18T07:39:43;100125.34;;;13.10;47.07
54900;BME280;40801;41.924;25.562;2023-02-18T07:42:12;100116.25;;;13.06;47.16
54900;BME280;40801;41.924;25.562;2023-02-18T07:44:38;100115.13;;;12.93;47.82
54900;BME280;40801;41.924;25.562;2023-02-18T07:47:04;100116.75;;;13.08;47.30
54900;BME280;40801;41.924;25.562;2023-02-18T07:49:30;100122.16;;;13.22;47.29
54900;BME280;40801;41.924;25.562;2023-02-18T07:51:56;100113.41;;;13.25;47.20
54900;BME280;40801;41.924;25.562;2023-02-18T07:54:22;100107.91;;;13.30;47.01
54900;BME280;40801;41.924;25.562;2023-02-18T07:56:47;100114.31;;;13.34;47.68
54900;BME280;40801;41.924;25.562;2023-02-18T07:59:13;100117.91;;;13.43;47.35
54900;BME280;40801;41.924;25.562;2023-02-18T08:01:39;100115.91;;;13.71;47.43
54900;BME280;40801;41.924;25.562;2023-02-18T08:04:05;100115.88;;;14.16;47.22
54900;BME280;40801;41.924;25.562;2023-02-18T08:06:39;100104.09;;;14.91;45.48
54900;BME280;40801;41.924;25.562;2023-02-18T08:09:06;100095.72;;;15.79;45.43
54900;BME280;40801;41.924;25.562;2023-02-18T08:11:32;100095.25;;;16.41;43.95
54900;BME280;40801;41.924;25.562;2023-02-18T08:13:57;100095.78;;;17.02;43.07
54900;BME280;40801;41.924;25.562;2023-02-18T08:16:23;100086.06;;;17.43;41.02
54900;BME280;40801;41.924;25.562;2023-02-18T08:18:50;100080.03;;;17.37;39.47
54900;BME280;40801;41.924;25.562;2023-02-18T08:21:17;100083.75;;;17.03;39.82
54900;BME280;40801;41.924;25.562;2023-02-18T08:26:16;100073.28;;;17.14;39.55
54900;BME280;40801;41.924;25.562;2023-02-18T08:28:46;100074.75;;;17.11;38.68
54900;BME280;40801;41.924;25.562;2023-02-18T08:33:42;100063.84;;;17.74;39.00
54900;BME280;40801;41.924;25.562;2023-02-18T08:36:08;100064.25;;;18.54;37.95
54900;BME280;40801;41.924;25.562;2023-02-18T08:38:35;100061.34;;;19.24;36.05
54900;BME280;40801;41.924;25.562;2023-02-18T08:41:05;100051.66;;;19.66;35.23
54900;BME280;40801;41.924;25.562;2023-02-18T08:43:30;100047.03;;;19.98;34.33
54900;BME280;40801;41.924;25.562;2023-02-18T08:45:57;100045.97;;;20.19;33.82
54900;BME280;40801;41.924;25.562;2023-02-18T08:48:22;100042.91;;;20.52;33.07
54900;BME280;40801;41.924;25.562;2023-02-18T08:50:48;100042.38;;;20.30;33.34
54900;BME280;40801;41.924;25.562;2023-02-18T08:53:14;100054.56;;;20.49;33.19
54900;BME280;40801;41.924;25.562;2023-02-18T08:55:40;100063.78;;;20.56;33.22
54900;BME280;40801;41.924;25.562;2023-02-18T08:58:07;100054.59;;;20.99;32.72
54900;BME280;40801;41.924;25.562;2023-02-18T09:00:32;100051.59;;;21.40;32.38
54900;BME280;40801;41.924;25.562;2023-02-18T09:02:58;100056.22;;;21.20;32.36
54900;BME280;40801;41.924;25.562;2023-02-18T09:05:26;100056.59;;;20.67;32.11
54900;BME280;40801;41.924;25.562;2023-02-18T09:07:53;100056.00;;;20.42;32.67
54900;BME280;40801;41.924;25.562;2023-02-18T09:10:18;100061.97;;;20.17;32.82
54900;BME280;40801;41.924;25.562;2023-02-18T09:12:44;100064.66;;;19.85;33.09
54900;BME280;40801;41.924;25.562;2023-02-18T09:15:10;100070.66;;;19.75;32.71
54900;BME280;40801;41.924;25.562;2023-02-18T09:17:35;100063.19;;;19.47;33.13
54900;BME280;40801;41.924;25.562;2023-02-18T09:20:00;100070.53;;;19.31;33.67
54900;BME280;40801;41.924;25.562;2023-02-18T09:22:26;100056.69;;;19.12;33.89
54900;BME280;40801;41.924;25.562;2023-02-18T09:24:52;100053.88;;;19.08;34.34
54900;BME280;40801;41.924;25.562;2023-02-18T09:27:18;100053.97;;;19.12;34.47
54900;BME280;40801;41.924;25.562;2023-02-18T09:29:44;100055.94;;;19.39;34.23
54900;BME280;40801;41.924;25.562;2023-02-18T09:32:09;100061.31;;;19.64;34.50
54900;BME280;40801;41.924;25.562;2023-02-18T09:34:36;100057.66;;;19.72;33.50
54900;BME280;40801;41.924;25.562;2023-02-18T09:37:03;100057.59;;;19.84;33.04
54900;BME280;40801;41.924;25.562;2023-02-18T09:39:29;100042.84;;;19.73;32.85
54900;BME280;40801;41.924;25.562;2023-02-18T09:41:57;100045.41;;;19.82;32.82
54900;BME280;40801;41.924;25.562;2023-02-18T09:44:38;100037.31;;;20.01;31.19
54900;BME280;40801;41.924;25.562;2023-02-18T09:49:39;100047.66;;;21.06;31.19
54900;BME280;40801;41.924;25.562;2023-02-18T09:52:27;100038.97;;;21.77;29.81
54900;BME280;40801;41.924;25.562;2023-02-18T09:54:51;100032.63;;;21.96;27.21
54900;BME280;40801;41.924;25.562;2023-02-18T09:57:41;100039.03;;;22.72;25.69
54900;BME280;40801;41.924;25.562;2023-02-18T10:00:19;100032.38;;;23.30;24.54
54900;BME280;40801;41.924;25.562;2023-02-18T10:02:58;100026.63;;;23.72;22.51
54900;BME280;40801;41.924;25.562;2023-02-18T10:05:27;100025.44;;;24.14;23.58
54900;BME280;40801;41.924;25.562;2023-02-18T10:07:58;100026.13;;;24.00;23.22
54900;BME280;40801;41.924;25.562;2023-02-18T10:10:36;100026.88;;;23.60;21.95
54900;BME280;40801;41.924;25.562;2023-02-18T10:13:13;100018.19;;;23.58;22.00
54900;BME280;40801;41.924;25.562;2023-02-18T10:15:39;100011.47;;;23.92;22.73
54900;BME280;40801;41.924;25.562;2023-02-18T10:20:46;100009.75;;;23.77;22.85
54900;BME280;40801;41.924;25.562;2023-02-18T10:23:14;100000.84;;;23.94;22.82
54900;BME280;40801;41.924;25.562;2023-02-18T10:25:43;100001.00;;;24.08;22.42
54900;BME280;40801;41.924;25.562;2023-02-18T10:28:10;99983.56;;;23.97;21.86
54900;BME280;40801;41.924;25.562;2023-02-18T10:30:40;99984.34;;;23.57;21.50
54900;BME280;40801;41.924;25.562;2023-02-18T10:35:58;99986.88;;;23.39;21.53
54900;BME280;40801;41.924;25.562;2023-02-18T10:38:44;99977.78;;;24.09;20.86
54900;BME280;40801;41.924;25.562;2023-02-18T10:41:50;99984.13;;;24.68;20.17
54900;BME280;40801;41.924;25.562;2023-02-18T10:50:13;99952.88;;;24.47;20.93
54900;BME280;40801;41.924;25.562;2023-02-18T10:52:45;99952.34;;;24.96;20.79
54900;BME280;40801;41.924;25.562;2023-02-18T10:55:13;99952.13;;;25.37;19.92
54900;BME280;40801;41.924;25.562;2023-02-18T10:57:47;99951.97;;;24.94;19.78
54900;BME280;40801;41.924;25.562;2023-02-18T11:02:44;99944.78;;;24.82;20.45
54900;BME280;40801;41.924;25.562;2023-02-18T11:05:23;99932.50;;;24.65;20.04
54900;BME280;40801;41.924;25.562;2023-02-18T11:07:51;99929.44;;;24.85;21.39
54900;BME280;40801;41.924;25.562;2023-02-18T11:10:22;99926.56;;;26.00;21.01
54900;BME280;40801;41.924;25.562;2023-02-18T11:12:51;99920.47;;;27.01;19.73
54900;BME280;40801;41.924;25.562;2023-02-18T11:15:23;99912.66;;;28.03;18.34
54900;BME280;40801;41.924;25.562;2023-02-18T11:17:51;99915.56;;;29.06;17.40
54900;BME280;40801;41.924;25.562;2023-02-18T11:22:50;99908.28;;;29.42;16.70
54900;BME280;40801;41.924;25.562;2023-02-18T11:25:21;99904.78;;;28.77;16.48
54900;BME280;40801;41.924;25.562;2023-02-18T11:30:40;99904.72;;;27.57;16.23
54900;BME280;40801;41.924;25.562;2023-02-18T11:35:52;99888.72;;;27.16;16.37
54900;BME280;40801;41.924;25.562;2023-02-18T11:38:35;99896.13;;;26.25;17.63
54900;BME280;40801;41.924;25.562;2023-02-18T11:41:10;99888.28;;;26.06;18.13
54900;BME280;40801;41.924;25.562;2023-02-18T11:43:40;99887.84;;;26.21;17.22
54900;BME280;40801;41.924;25.562;2023-02-18T11:46:12;99882.72;;;26.41;17.11
54900;BME280;40801;41.924;25.562;2023-02-18T11:48:38;99885.91;;;25.90;17.72
54900;BME280;40801;41.924;25.562;2023-02-18T11:51:03;99880.38;;;25.51;17.52
54900;BME280;40801;41.924;25.562;2023-02-18T11:53:32;99874.59;;;26.97;16.63
54900;BME280;40801;41.924;25.562;2023-02-18T11:56:04;99861.03;;;27.79;16.51
54900;BME280;40801;41.924;25.562;2023-02-18T11:58:43;99857.38;;;27.86;15.67
54900;BME280;40801;41.924;25.562;2023-02-18T12:04:37;99843.63;;;27.23;16.46
54900;BME280;40801;41.924;25.562;2023-02-18T12:09:37;99836.06;;;26.47;17.03
54900;BME280;40801;41.924;25.562;2023-02-18T12:12:12;99827.38;;;26.31;17.20
54900;BME280;40801;41.924;25.562;2023-02-18T12:14:39;99829.47;;;25.55;17.98
54900;BME280;40801;41.924;25.562;2023-02-18T12:29:00;99811.22;;;24.94;18.62
54900;BME280;40801;41.924;25.562;2023-02-18T13:07:11;99758.84;;;25.12;21.11
54900;BME280;40801;41.924;25.562;2023-02-18T13:12:58;99764.84;;;24.23;22.48
54900;BME280;40801;41.924;25.562;2023-02-18T13:18:00;99764.41;;;23.48;22.90
54900;BME280;40801;41.924;25.562;2023-02-18T13:20:41;99758.19;;;23.59;22.44
54900;BME280;40801;41.924;25.562;2023-02-18T13:23:21;99763.16;;;22.95;22.74
54900;BME280;40801;41.924;25.562;2023-02-18T13:25:53;99765.13;;;22.94;22.58
54900;BME280;40801;41.924;25.562;2023-02-18T13:28:57;99765.38;;;22.82;22.83
54900;BME280;40801;41.924;25.562;2023-02-18T13:34:44;99765.34;;;22.45;23.44
54900;BME280;40801;41.924;25.562;2023-02-18T13:39:50;99763.97;;;22.28;23.74
54900;BME280;40801;41.924;25.562;2023-02-18T13:47:44;99767.50;;;22.29;23.79
54900;BME280;40801;41.924;25.562;2023-02-18T13:52:49;99761.06;;;22.51;24.12
54900;BME280;40801;41.924;25.562;2023-02-18T13:55:21;99762.16;;;23.13;23.39
54900;BME280;40801;41.924;25.562;2023-02-18T13:57:52;99752.03;;;23.25;23.46
54900;BME280;40801;41.924;25.562;2023-02-18T14:00:25;99751.47;;;24.22;21.91
54900;BME280;40801;41.924;25.562;2023-02-18T14:03:00;99752.94;;;25.35;21.59
54900;BME280;40801;41.924;25.562;2023-02-18T14:05:38;99755.22;;;26.00;20.85
54900;BME280;40801;41.924;25.562;2023-02-18T14:08:15;99746.38;;;26.44;20.08
54900;BME280;40801;41.924;25.562;2023-02-18T14:13:54;99751.09;;;27.13;19.76
54900;BME280;40801;41.924;25.562;2023-02-18T14:16:20;99752.94;;;27.31;19.53
54900;BME280;40801;41.924;25.562;2023-02-18T14:36:54;99751.88;;;22.70;22.92
54900;BME280;40801;41.924;25.562;2023-02-18T14:42:18;99764.91;;;22.09;24.20
54900;BME280;40801;41.924;25.562;2023-02-18T14:44:57;99757.50;;;21.87;24.44
54900;BME280;40801;41.924;25.562;2023-02-18T14:47:53;99754.94;;;21.71;24.68
54900;BME280;40801;41.924;25.562;2023-02-18T14:50:20;99752.59;;;21.47;24.96
54900;BME280;40801;41.924;25.562;2023-02-18T14:52:53;99751.19;;;21.33;25.30
54900;BME280;40801;41.924;25.562;2023-02-18T14:55:29;99752.09;;;20.95;26.37
54900;BME280;40801;41.924;25.562;2023-02-18T14:58:02;99754.31;;;20.86;26.20
54900;BME280;40801;41.924;25.562;2023-02-18T15:00:29;99742.66;;;20.93;25.92
54900;BME280;40801;41.924;25.562;2023-02-18T15:02:59;99742.50;;;20.63;26.39
54900;BME280;40801;41.924;25.562;2023-02-18T15:05:30;99743.91;;;20.53;26.38
54900;BME280;40801;41.924;25.562;2023-02-18T15:08:05;99748.28;;;20.38;27.12
54900;BME280;40801;41.924;25.562;2023-02-18T15:10:41;99741.56;;;20.36;26.52
54900;BME280;40801;41.924;25.562;2023-02-18T15:13:31;99743.75;;;20.27;26.66
54900;BME280;40801;41.924;25.562;2023-02-18T15:16:06;99742.06;;;20.22;26.71
54900;BME280;40801;41.924;25.562;2023-02-18T15:18:41;99737.59;;;20.14;26.68
54900;BME280;40801;41.924;25.562;2023-02-18T15:21:28;99738.91;;;20.01;26.92
54900;BME280;40801;41.924;25.562;2023-02-18T15:23:54;99741.81;;;19.92;26.77
54900;BME280;40801;41.924;25.562;2023-02-18T15:26:24;99740.72;;;19.77;27.01
54900;BME280;40801;41.924;25.562;2023-02-18T15:28:54;99738.38;;;19.60;27.22
54900;BME280;40801;41.924;25.562;2023-02-18T15:31:27;99740.41;;;19.63;26.91
54900;BME280;40801;41.924;25.562;2023-02-18T15:33:53;99746.59;;;19.60;27.22
54900;BME280;40801;41.924;25.562;2023-02-18T15:36:18;99754.53;;;19.49;27.19
54900;BME280;40801;41.924;25.562;2023-02-18T15:38:44;99763.63;;;19.38;27.53
54900;BME280;40801;41.924;25.562;2023-02-18T15:41:13;99762.47;;;19.23;27.63
54900;BME280;40801;41.924;25.562;2023-02-18T15:43:38;99763.03;;;19.13;27.40